Time;durP1;ratioP1;P1;durP2;ratioP2;P2;SDS_P1;SDS_P2;PMS_P1;PMS_P2;Temp;Humidity;BMP_temperature;BMP_pressure;BME280_temperature;BME280_humidity;BME280_pressure;Samples;Min_cycle;Max_cycle;Signal;HPM_P1;HPM_P2
2022/04/10 00:01:46;;;;;;;2.97;1.10;;;;;;;;;;10385813;28;19921;-68
2022/04/10 00:06:51;;;;;;;4.70;1.60;;;;;;;;;;10400238;28;20605;-69
2022/04/10 00:11:54;;;;;;;2.47;1.20;;;;;;;;;;10403660;28;20038;-69
2022/04/10 00:16:58;;;;;;;5.27;1.70;;;;;;;;;;10385403;28;20140;-68
2022/04/10 00:22:02;;;;;;;3.10;1.27;;;;;;;;;;10398374;28;20436;-69
2022/04/10 00:27:05;;;;;;;;;;;;;;;;;;10389737;28;20455;-67
2022/04/10 00:32:09;;;;;;;1.90;1.07;;;;;;;;;;10404667;28;19921;-68
2022/04/10 00:37:13;;;;;;;3.97;1.93;;;;;;;;;;10403833;28;20068;-68
2022/04/10 00:42:17;;;;;;;1.97;1.20;;;;;;;;;;10375799;28;20119;-68
2022/04/10 00:47:19;;;;;;;2.37;1.17;;;;;;;;;;10399325;28;20096;-67
2022/04/10 00:52:25;;;;;;;2.43;0.93;;;;;;;;;;10403450;28;20043;-67
2022/04/10 00:57:28;;;;;;;1.87;1.10;;;;;;;;;;10383479;28;20041;-71
2022/04/10 01:02:32;;;;;;;3.15;1.30;;;;;;;;;;10403877;28;20250;-69
2022/04/10 01:07:38;;;;;;;4.78;1.80;;;;;;;;;;10399412;28;20037;-69
2022/04/10 01:12:42;;;;;;;3.00;1.40;;;;;;;;;;10401244;28;20764;-68
2022/04/10 01:17:47;;;;;;;5.22;2.05;;;;;;;;;;10404620;28;20186;-69
2022/04/10 01:22:51;;;;;;;2.45;1.30;;;;;;;;;;10384483;28;20048;-68
2022/04/10 01:27:56;;;;;;;4.53;1.73;;;;;;;;;;10398199;28;20060;-68
2022/04/10 01:33:00;;;;;;;3.00;1.20;;;;;;;;;;10385609;28;20045;-68
2022/04/10 01:38:05;;;;;;;3.03;1.70;;;;;;;;;;10395376;28;20723;-68
2022/04/10 01:43:08;;;;;;;5.90;2.03;;;;;;;;;;10382094;28;20063;-68
2022/04/10 01:48:11;;;;;;;3.60;1.27;;;;;;;;;;10406165;28;20057;-68
2022/04/10 01:53:15;;;;;;;2.90;1.33;;;;;;;;;;10405848;28;20037;-69
2022/04/10 01:58:18;;;;;;;3.97;1.33;;;;;;;;;;10385444;28;20041;-69
2022/04/10 02:03:22;;;;;;;1.83;0.82;;;;;;;;;;10406658;28;20037;-69
2022/04/10 02:08:26;;;;;;;3.97;1.60;;;;;;;;;;10481437;22;20036;-72
2022/04/10 02:13:30;;;;;;;3.83;1.43;;;;;;;;;;10476028;28;20096;-71
2022/04/10 02:18:34;;;;;;;3.35;1.58;;;;;;;;;;10436041;28;20438;-71
2022/04/10 02:23:39;;;;;;;5.22;1.35;;;;;;;;;;10428761;28;20041;-71
2022/04/10 02:28:42;;;;;;;4.50;1.90;;;;;;;;;;10426031;28;20041;-71
2022/04/10 02:33:46;;;;;;;3.33;1.70;;;;;;;;;;10447657;28;20040;-70
2022/04/10 02:38:50;;;;;;;2.47;2.00;;;;;;;;;;10449025;28;20512;-72
2022/04/10 02:43:57;;;;;;;1.73;1.00;;;;;;;;;;10443313;28;20520;-72
2022/04/10 02:49:01;;;;;;;3.30;1.03;;;;;;;;;;10441940;28;20037;-70
2022/04/10 02:54:06;;;;;;;3.23;1.40;;;;;;;;;;10415522;28;20194;-71
2022/04/10 02:59:09;;;;;;;1.63;1.10;;;;;;;;;;10420363;28;20433;-71
2022/04/10 03:04:13;;;;;;;4.25;1.83;;;;;;;;;;10434916;28;20045;-70
2022/04/10 03:09:18;;;;;;;2.27;1.27;;;;;;;;;;10433090;28;20039;-71
2022/04/10 03:14:21;;;;;;;6.73;1.87;;;;;;;;;;10440065;28;20052;-72
2022/04/10 03:19:25;;;;;;;2.47;1.37;;;;;;;;;;10428920;28;20045;-72
2022/04/10 03:24:29;;;;;;;3.30;1.70;;;;;;;;;;10428721;28;20079;-71
2022/04/10 03:29:32;;;;;;;5.83;1.83;;;;;;;;;;10443469;28;20424;-72
2022/04/10 03:34:35;;;;;;;6.73;2.13;;;;;;;;;;10427134;28;20090;-71
2022/04/10 03:39:40;;;;;;;1.90;1.33;;;;;;;;;;10443945;28;20178;-69
2022/04/10 03:44:43;;;;;;;3.33;1.40;;;;;;;;;;10442808;28;20147;-71
2022/04/10 03:49:46;;;;;;;4.73;2.17;;;;;;;;;;10444586;28;20091;-69
2022/04/10 03:54:51;;;;;;;5.55;1.88;;;;;;;;;;10427250;28;20075;-71
2022/04/10 03:59:55;;;;;;;8.77;1.90;;;;;;;;;;10443711;28;20052;-70
2022/04/10 04:04:58;;;;;;;2.43;1.40;;;;;;;;;;10425204;28;20049;-70
2022/04/10 04:10:02;;;;;;;4.70;2.17;;;;;;;;;;10443329;28;20053;-72
2022/04/10 04:15:06;;;;;;;6.13;1.87;;;;;;;;;;10423291;28;20136;-71
2022/04/10 04:20:10;;;;;;;4.35;1.92;;;;;;;;;;10424250;28;20045;-70
2022/04/10 04:25:15;;;;;;;4.18;2.22;;;;;;;;;;10441806;28;20450;-71
2022/04/10 04:30:18;;;;;;;2.17;1.27;;;;;;;;;;10424101;28;20067;-70
2022/04/10 04:35:22;;;;;;;5.23;2.10;;;;;;;;;;10443336;28;20041;-71
2022/04/10 04:40:26;;;;;;;5.90;3.20;;;;;;;;;;10422009;28;20033;-69
2022/04/10 04:45:29;;;;;;;4.23;1.83;;;;;;;;;;10437752;28;20037;-70
2022/04/10 04:50:32;;;;;;;1.50;0.90;;;;;;;;;;10435787;28;20068;-71
2022/04/10 04:55:37;;;;;;;5.15;2.08;;;;;;;;;;10434815;28;20036;-71
2022/04/10 05:00:41;;;;;;;3.33;1.73;;;;;;;;;;10422128;28;20037;-70
2022/04/10 05:05:44;;;;;;;2.60;1.67;;;;;;;;;;10439781;28;20048;-72
2022/04/10 05:10:48;;;;;;;1.13;0.60;;;;;;;;;;10421541;28;20558;-71
2022/04/10 05:15:52;;;;;;;3.57;1.60;;;;;;;;;;10438564;28;20197;-70
2022/04/10 05:20:56;;;;;;;;;;;;;;;;;;10435559;28;20040;-70
2022/04/10 05:26:01;;;;;;;5.30;2.60;;;;;;;;;;10424487;28;19925;-71
2022/04/10 05:31:04;;;;;;;3.30;1.40;;;;;;;;;;10435454;28;20048;-70
2022/04/10 05:36:08;;;;;;;4.97;2.37;;;;;;;;;;10414711;28;20041;-70
2022/04/10 05:41:13;;;;;;;5.45;1.67;;;;;;;;;;10433501;28;20041;-68
2022/04/10 05:46:16;;;;;;;2.60;1.40;;;;;;;;;;10441611;28;20057;-70
2022/04/10 05:51:19;;;;;;;5.97;1.92;;;;;;;;;;10420829;28;20045;-72
2022/04/10 05:56:23;;;;;;;5.33;2.43;;;;;;;;;;10436615;28;20033;-71
2022/04/10 06:01:27;;;;;;;4.30;2.13;;;;;;;;;;10422862;28;20040;-70
2022/04/10 06:06:30;;;;;;;6.83;1.80;;;;;;;;;;10419277;28;20051;-71
2022/04/10 06:11:35;;;;;;;3.13;1.27;;;;;;;;;;10434570;28;20374;-71
2022/04/10 06:16:38;;;;;;;4.67;2.23;;;;;;;;;;10421661;28;20448;-71
2022/04/10 06:21:41;;;;;;;4.73;1.93;;;;;;;;;;10438097;28;20093;-71
2022/04/10 06:26:48;;;;;;;4.07;1.90;;;;;;;;;;10438886;28;20045;-71
2022/04/10 06:31:52;;;;;;;3.37;1.90;;;;;;;;;;10438559;28;20128;-71
2022/04/10 06:36:55;;;;;;;5.47;2.10;;;;;;;;;;10423071;28;20045;-71
2022/04/10 06:41:59;;;;;;;5.60;2.60;;;;;;;;;;10434475;28;20106;-71
2022/04/10 06:47:03;;;;;;;3.65;2.00;;;;;;;;;;10439808;28;20128;-71
2022/04/10 06:52:06;;;;;;;7.80;2.47;;;;;;;;;;10422469;28;20059;-72
2022/04/10 06:57:11;;;;;;;4.53;2.47;;;;;;;;;;10445396;28;20049;-71
2022/04/10 07:02:14;;;;;;;7.25;3.10;;;;;;;;;;10440707;28;20025;-71
2022/04/10 07:07:17;;;;;;;4.60;2.13;;;;;;;;;;10427418;28;20037;-71
2022/04/10 07:12:21;;;;;;;12.70;2.90;;;;;;;;;;10424659;28;20033;-70
2022/04/10 07:17:25;;;;;;;4.30;2.63;;;;;;;;;;10442772;28;20037;-71
2022/04/10 07:27:50;;;;;;;6.57;3.08;;;;;;;;;;10424933;28;20041;-72
2022/04/10 07:32:54;;;;;;;6.47;3.55;;;;;;;;;;10439750;28;20069;-70
2022/04/10 07:37:57;;;;;;;5.95;2.65;;;;;;;;;;10440392;28;20033;-71
2022/04/10 07:43:02;;;;;;;4.88;2.15;;;;;;;;;;10418493;28;20039;-72
2022/04/10 07:48:05;;;;;;;5.10;3.55;;;;;;;;;;10440028;28;20069;-71
2022/04/10 07:53:08;;;;;;;7.13;3.63;;;;;;;;;;10428182;28;20071;-71
2022/04/10 07:58:13;;;;;;;4.20;2.45;;;;;;;;;;10441171;28;20052;-70
2022/04/10 08:03:17;;;;;;;6.43;3.78;;;;;;;;;;10429257;28;20044;-72
2022/04/10 08:08:21;;;;;;;5.80;3.65;;;;;;;;;;10455473;22;20102;-70
2022/04/10 08:13:25;;;;;;;3.97;2.67;;;;;;;;;;10421095;28;20044;-70
2022/04/10 08:18:30;;;;;;;4.93;2.33;;;;;;;;;;10419921;28;20049;-71
2022/04/10 08:23:33;;;;;;;4.53;2.90;;;;;;;;;;10432113;28;20037;-70
2022/04/10 08:28:36;;;;;;;;;;;;;;;;;;10438258;28;20036;-71
2022/04/10 08:33:41;;;;;;;5.38;2.88;;;;;;;;;;10441972;28;19921;-70
2022/04/10 08:38:45;;;;;;;4.57;2.85;;;;;;;;;;10434813;28;20037;-70
2022/04/10 08:43:49;;;;;;;4.70;2.67;;;;;;;;;;10432702;28;20041;-70
2022/04/10 08:48:55;;;;;;;5.07;2.90;;;;;;;;;;10438990;28;20049;-70
2022/04/10 08:54:00;;;;;;;3.05;1.52;;;;;;;;;;10414313;28;20061;-69
2022/04/10 08:59:03;;;;;;;5.88;2.80;;;;;;;;;;10438789;28;20057;-70
2022/04/10 09:04:08;;;;;;;3.90;2.83;;;;;;;;;;10434225;28;20047;-70
2022/04/10 09:09:11;;;;;;;4.18;2.28;;;;;;;;;;10429266;28;20103;-71
2022/04/10 09:14:20;;;;;;;5.20;2.30;;;;;;;;;;10413994;28;20422;-70
2022/04/10 09:19:35;;;;;;;4.22;2.67;;;;;;;;;;10436670;28;20041;-70
2022/04/10 09:24:58;;;;;;;3.70;2.75;;;;;;;;;;10414597;28;20048;-68
2022/04/10 09:30:05;;;;;;;3.28;2.55;;;;;;;;;;10435025;28;20444;-71
2022/04/10 09:35:10;;;;;;;2.50;1.98;;;;;;;;;;10433133;28;20409;-71
2022/04/10 09:40:20;;;;;;;5.35;2.83;;;;;;;;;;10434685;28;20128;-70
2022/04/10 09:45:28;;;;;;;4.63;2.60;;;;;;;;;;10415575;28;20524;-70
2022/04/10 09:50:33;;;;;;;4.55;2.35;;;;;;;;;;10431036;28;20056;-71
2022/04/10 09:55:38;;;;;;;4.70;2.15;;;;;;;;;;10431986;28;20041;-71
2022/04/10 10:00:43;;;;;;;3.13;1.80;;;;;;;;;;10449143;28;20035;-70
2022/04/10 10:05:49;;;;;;;5.70;2.53;;;;;;;;;;10457211;28;20033;-70
2022/04/10 10:10:52;;;;;;;3.47;2.22;;;;;;;;;;10437684;28;20052;-70
2022/04/10 10:15:57;;;;;;;4.90;2.03;;;;;;;;;;10429026;28;20067;-71
2022/04/10 10:21:03;;;;;;;3.83;1.83;;;;;;;;;;10426561;28;20041;-70
2022/04/10 10:26:15;;;;;;;3.92;1.95;;;;;;;;;;10411712;28;20078;-69
2022/04/10 10:31:26;;;;;;;4.33;2.13;;;;;;;;;;10432184;28;20099;-72
2022/04/10 10:36:31;;;;;;;4.10;2.60;;;;;;;;;;10431092;28;20094;-72
2022/04/10 10:41:34;;;;;;;5.43;2.42;;;;;;;;;;10428236;28;20367;-71
2022/04/10 10:46:55;;;;;;;3.58;2.40;;;;;;;;;;10408331;28;20041;-72
2022/04/10 10:52:18;;;;;;;2.42;1.88;;;;;;;;;;10428091;28;20037;-69
2022/04/10 10:57:25;;;;;;;3.17;2.28;;;;;;;;;;10430499;28;20178;-71
2022/04/10 11:02:32;;;;;;;4.00;2.40;;;;;;;;;;10426228;28;20098;-71
2022/04/10 11:07:58;;;;;;;5.32;3.17;;;;;;;;;;10433034;28;20041;-69
2022/04/10 11:13:01;;;;;;;4.25;1.95;;;;;;;;;;10431343;28;20037;-71
2022/04/10 11:18:19;;;;;;;4.00;2.00;;;;;;;;;;10428462;28;20045;-71
2022/04/10 11:23:28;;;;;;;4.88;2.28;;;;;;;;;;10434196;28;20033;-71
2022/04/10 11:28:31;;;;;;;4.65;2.10;;;;;;;;;;10427982;28;20037;-72
2022/04/10 11:33:48;;;;;;;1.85;1.40;;;;;;;;;;10431935;28;20033;-71
2022/04/10 11:39:11;;;;;;;2.53;1.55;;;;;;;;;;10418925;28;20501;-70
2022/04/10 11:44:14;;;;;;;2.20;1.50;;;;;;;;;;10435205;28;20044;-70
2022/04/10 11:49:17;;;;;;;2.13;1.50;;;;;;;;;;10417054;28;20029;-70
2022/04/10 11:54:26;;;;;;;2.63;1.50;;;;;;;;;;10413010;28;20052;-70
2022/04/10 11:59:33;;;;;;;2.15;1.00;;;;;;;;;;10430854;28;20041;-72
2022/04/10 12:04:37;;;;;;;2.72;1.75;;;;;;;;;;10433626;28;20048;-71
2022/04/10 12:09:42;;;;;;;2.20;2.00;;;;;;;;;;10430897;28;20375;-70
2022/04/10 12:14:44;;;;;;;3.80;2.13;;;;;;;;;;10426834;28;20047;-68
2022/04/10 12:19:47;;;;;;;3.42;2.45;;;;;;;;;;10433472;28;20554;-71
2022/04/10 12:24:57;;;;;;;2.88;2.20;;;;;;;;;;10417758;28;20421;-71
2022/04/10 12:30:01;;;;;;;2.25;1.67;;;;;;;;;;10431346;28;20029;-68
2022/04/10 12:35:07;;;;;;;2.97;2.35;;;;;;;;;;10433166;28;20041;-68
2022/04/10 12:40:12;;;;;;;4.68;3.20;;;;;;;;;;10420387;28;20146;-71
2022/04/10 12:45:15;;;;;;;2.78;2.13;;;;;;;;;;10428288;28;20076;-68
2022/04/10 12:50:19;;;;;;;3.97;2.40;;;;;;;;;;10413311;28;20059;-68
2022/04/10 12:55:24;;;;;;;3.67;2.35;;;;;;;;;;10435816;28;20041;-70
2022/04/10 13:00:31;;;;;;;4.95;2.72;;;;;;;;;;10415077;28;20470;-70
2022/04/10 13:05:34;;;;;;;2.08;1.65;;;;;;;;;;10429876;28;20040;-68
2022/04/10 13:10:48;;;;;;;3.28;2.00;;;;;;;;;;10426330;28;20071;-70
2022/04/10 13:15:52;;;;;;;4.47;2.40;;;;;;;;;;10431279;28;20052;-70
2022/04/10 13:20:55;;;;;;;4.47;1.70;;;;;;;;;;10427731;28;20059;-70
2022/04/10 13:26:00;;;;;;;3.33;1.75;;;;;;;;;;10416373;28;21195;-70
2022/04/10 13:31:03;;;;;;;6.22;2.60;;;;;;;;;;10432582;28;20039;-68
2022/04/10 13:36:06;;;;;;;4.43;2.87;;;;;;;;;;10414918;28;20489;-68
2022/04/10 13:41:12;;;;;;;3.15;2.30;;;;;;;;;;10411442;28;20301;-68
2022/04/10 13:46:15;;;;;;;2.20;1.70;;;;;;;;;;10428533;28;20469;-67
2022/04/10 13:51:19;;;;;;;6.25;2.53;;;;;;;;;;10427041;28;20077;-67
2022/04/10 13:56:23;;;;;;;4.57;2.77;;;;;;;;;;10427400;28;20504;-70
2022/04/10 14:01:26;;;;;;;5.55;2.53;;;;;;;;;;10430927;28;20384;-70
2022/04/10 14:06:29;;;;;;;3.42;1.67;;;;;;;;;;10416849;28;20444;-67
2022/04/10 14:11:34;;;;;;;4.18;1.73;;;;;;;;;;10430806;28;20057;-70
2022/04/10 14:16:37;;;;;;;2.70;1.92;;;;;;;;;;10468218;28;20053;-68
2022/04/10 14:21:40;;;;;;;2.88;1.60;;;;;;;;;;10448950;28;20036;-69
2022/04/10 14:26:44;;;;;;;1.50;1.23;;;;;;;;;;10434095;28;20047;-69
2022/04/10 14:31:48;;;;;;;3.85;1.70;;;;;;;;;;10427788;28;20122;-69
2022/04/10 14:36:50;;;;;;;7.93;2.80;;;;;;;;;;10427637;28;20506;-72
2022/04/10 14:41:55;;;;;;;3.70;2.25;;;;;;;;;;10429382;28;20132;-72
2022/04/10 14:46:58;;;;;;;5.97;3.20;;;;;;;;;;10407296;28;20086;-70
2022/04/10 14:52:01;;;;;;;4.38;2.03;;;;;;;;;;10414563;28;20033;-70
2022/04/10 14:57:05;;;;;;;4.23;2.43;;;;;;;;;;10430249;28;20033;-70
2022/04/10 15:02:09;;;;;;;5.97;2.97;;;;;;;;;;10431147;28;20096;-69
2022/04/10 15:07:12;;;;;;;4.13;2.33;;;;;;;;;;10434611;28;20063;-71
2022/04/10 15:12:17;;;;;;;3.80;1.77;;;;;;;;;;10422522;28;20056;-70
2022/04/10 15:17:19;;;;;;;2.60;1.58;;;;;;;;;;10438531;28;20174;-70
2022/04/10 15:22:22;;;;;;;2.28;1.33;;;;;;;;;;10473761;28;20049;-70
2022/04/10 15:27:26;;;;;;;3.17;1.55;;;;;;;;;;10442238;28;20048;-69
2022/04/10 15:32:30;;;;;;;4.20;2.05;;;;;;;;;;10477585;22;20319;-72
2022/04/10 15:37:33;;;;;;;6.40;3.28;;;;;;;;;;10449305;28;20048;-73
2022/04/10 15:42:38;;;;;;;7.25;2.30;;;;;;;;;;10449324;28;20048;-73
2022/04/10 15:47:41;;;;;;;7.30;2.88;;;;;;;;;;10465490;28;20497;-72
2022/04/10 15:52:44;;;;;;;7.85;2.78;;;;;;;;;;10450714;28;20061;-73
2022/04/10 15:57:49;;;;;;;7.57;3.08;;;;;;;;;;10449913;28;20033;-71
2022/04/10 16:02:52;;;;;;;6.10;3.10;;;;;;;;;;10448025;28;20117;-73
2022/04/10 16:07:55;;;;;;;8.32;3.03;;;;;;;;;;10448019;28;20052;-72
2022/04/10 16:13:00;;;;;;;5.90;2.97;;;;;;;;;;10445924;28;20049;-72
2022/04/10 16:18:03;;;;;;;6.57;3.03;;;;;;;;;;10444221;28;20037;-73
2022/04/10 16:23:09;;;;;;;8.18;4.03;;;;;;;;;;10445031;28;20083;-72
2022/04/10 16:34:16;;;;;;;8.75;3.13;;;;;;;;;;10448925;28;20370;-73
2022/04/10 16:38:57;;;;;;;8.80;3.93;;;;;;;;;;10444727;28;20041;-73
2022/04/10 16:44:01;;;;;;;8.93;3.58;;;;;;;;;;10443312;28;20429;-73
2022/04/10 16:49:04;;;;;;;7.03;3.15;;;;;;;;;;10446890;28;20432;-72
2022/04/10 16:59:26;;;;;;;5.95;3.38;;;;;;;;;;10444595;28;20041;-72
2022/04/10 17:04:29;;;;;;;;;;;;;;;;;;10446193;28;20511;-72
2022/04/10 17:09:36;;;;;;;6.50;3.45;;;;;;;;;;10446441;28;19935;-73
2022/04/10 17:14:41;;;;;;;8.85;3.47;;;;;;;;;;10460804;28;20493;-72
2022/04/10 17:19:44;;;;;;;13.57;5.15;;;;;;;;;;10442926;28;20118;-73
2022/04/10 17:24:48;;;;;;;6.83;3.73;;;;;;;;;;10452924;28;20041;-72
2022/04/10 17:29:52;;;;;;;6.32;2.95;;;;;;;;;;10439980;28;20571;-72
2022/04/10 17:34:54;;;;;;;;;;;;;;;;;;10460685;28;20033;-72
2022/04/10 17:39:57;;;;;;;13.77;3.90;;;;;;;;;;10457578;28;19920;-72
2022/04/10 17:45:10;;;;;;;7.82;3.45;;;;;;;;;;10458486;28;20041;-72
2022/04/10 17:50:14;;;;;;;7.82;3.10;;;;;;;;;;10458010;28;20041;-72
2022/04/10 17:55:19;;;;;;;7.65;3.47;;;;;;;;;;10441429;28;20033;-71
2022/04/10 18:00:23;;;;;;;6.65;3.72;;;;;;;;;;10444324;28;20041;-73
2022/04/10 18:05:27;;;;;;;6.25;2.80;;;;;;;;;;10442407;28;20082;-72
2022/04/10 18:10:32;;;;;;;6.40;2.65;;;;;;;;;;10443926;28;20048;-71
2022/04/10 18:15:36;;;;;;;6.65;3.75;;;;;;;;;;10459288;28;20029;-71
2022/04/10 18:20:39;;;;;;;;;;;;;;;;;;10447926;28;20048;-72
2022/04/10 18:25:43;;;;;;;6.90;2.90;;;;;;;;;;10439022;28;19952;-73
2022/04/10 18:30:49;;;;;;;7.25;3.35;;;;;;;;;;10462570;28;20036;-72
2022/04/10 18:35:56;;;;;;;6.50;3.08;;;;;;;;;;10441343;28;20578;-73
2022/04/10 18:40:59;;;;;;;10.85;3.25;;;;;;;;;;10439503;28;20086;-73
2022/04/10 18:46:04;;;;;;;7.45;2.88;;;;;;;;;;10453510;28;20041;-73
2022/04/10 18:51:07;;;;;;;8.32;3.47;;;;;;;;;;10466656;28;20045;-72
2022/04/10 18:56:10;;;;;;;6.50;2.80;;;;;;;;;;10463977;28;20106;-72
2022/04/10 19:01:14;;;;;;;8.02;3.35;;;;;;;;;;10456118;28;20048;-73
2022/04/10 19:06:17;;;;;;;6.93;3.00;;;;;;;;;;10456337;28;20052;-73
2022/04/10 19:11:20;;;;;;;7.05;3.25;;;;;;;;;;10471376;28;20049;-71
2022/04/10 19:16:24;;;;;;;7.95;3.58;;;;;;;;;;10459561;28;20095;-73
2022/04/10 19:21:27;;;;;;;;;;;;;;;;;;10451514;28;20071;-72
2022/04/10 19:26:37;;;;;;;5.38;1.48;;;;;;;;;;10457949;28;19936;-73
2022/04/10 19:31:42;;;;;;;1.45;1.25;;;;;;;;;;10473364;28;20037;-72
2022/04/10 19:36:46;;;;;;;;;;;;;;;;;;10454571;28;20049;-72
2022/04/10 19:41:49;;;;;;;7.90;3.40;;;;;;;;;;10452601;28;19920;-71
2022/04/10 19:46:53;;;;;;;6.55;3.30;;;;;;;;;;10451945;28;20107;-72
2022/04/10 19:51:55;;;;;;;;;;;;;;;;;;10452742;28;20037;-72
2022/04/10 19:56:58;;;;;;;5.10;2.67;;;;;;;;;;10446982;28;20405;-72
2022/04/10 20:02:03;;;;;;;7.60;3.73;;;;;;;;;;10446962;28;20500;-72
2022/04/10 20:07:07;;;;;;;11.13;2.97;;;;;;;;;;10462276;28;20037;-71
2022/04/10 20:12:11;;;;;;;6.07;2.70;;;;;;;;;;10450523;28;20037;-72
2022/04/10 20:17:16;;;;;;;12.23;5.88;;;;;;;;;;10457520;28;20041;-72
2022/04/10 20:22:18;;;;;;;12.85;4.18;;;;;;;;;;10461640;28;20067;-71
2022/04/10 20:27:21;;;;;;;10.43;4.87;;;;;;;;;;10444078;28;20033;-71
2022/04/10 20:32:27;;;;;;;5.97;1.73;;;;;;;;;;10440440;28;20041;-71
2022/04/10 20:37:30;;;;;;;5.37;2.00;;;;;;;;;;10462256;28;20072;-71
2022/04/10 20:42:33;;;;;;;10.27;5.20;;;;;;;;;;10449670;28;20068;-71
2022/04/10 20:47:38;;;;;;;6.30;3.43;;;;;;;;;;10463200;28;20041;-71
2022/04/10 20:52:42;;;;;;;8.87;4.33;;;;;;;;;;10450306;28;20071;-71
2022/04/10 20:57:46;;;;;;;8.50;4.07;;;;;;;;;;10453615;28;20631;-72
2022/04/10 21:02:52;;;;;;;11.17;5.23;;;;;;;;;;10452945;28;20123;-70
2022/04/10 21:07:55;;;;;;;9.00;4.60;;;;;;;;;;10454491;28;20045;-71
2022/04/10 21:12:59;;;;;;;7.65;3.72;;;;;;;;;;10470396;28;20041;-71
2022/04/10 21:18:03;;;;;;;13.00;5.00;;;;;;;;;;10451593;28;20132;-72
2022/04/10 21:23:06;;;;;;;;;;;;;;;;;;10448951;28;20118;-71
2022/04/10 21:28:09;;;;;;;5.63;2.83;;;;;;;;;;10447968;28;19986;-71
2022/04/10 21:33:14;;;;;;;8.98;4.53;;;;;;;;;;10502446;22;20395;-72
2022/04/10 21:38:18;;;;;;;10.67;4.17;;;;;;;;;;10495828;28;20051;-73
2022/04/10 21:43:20;;;;;;;9.67;4.40;;;;;;;;;;10501317;28;20028;-73
2022/04/10 21:48:25;;;;;;;3.83;1.60;;;;;;;;;;10508428;28;20078;-73
2022/04/10 21:53:28;;;;;;;4.72;2.72;;;;;;;;;;10491987;28;20044;-73
2022/04/10 21:58:30;;;;;;;8.27;4.23;;;;;;;;;;10490860;28;20040;-73
2022/04/10 22:03:35;;;;;;;8.30;4.28;;;;;;;;;;10511703;28;20036;-74
2022/04/10 22:08:38;;;;;;;;;;;;;;;;;;10513345;28;20074;-73
2022/04/10 22:13:41;;;;;;;10.27;4.27;;;;;;;;;;10494730;28;19981;-73
2022/04/10 22:18:45;;;;;;;9.07;3.47;;;;;;;;;;10510508;28;20051;-74
2022/04/10 22:23:49;;;;;;;6.37;2.47;;;;;;;;;;10497762;28;20171;-74
2022/04/10 22:28:52;;;;;;;7.63;3.70;;;;;;;;;;10493837;28;20131;-73
2022/04/10 22:33:56;;;;;;;7.77;3.57;;;;;;;;;;10511722;28;20032;-72
2022/04/10 22:38:59;;;;;;;9.87;4.03;;;;;;;;;;10509768;28;20040;-73
2022/04/10 22:44:02;;;;;;;7.10;3.53;;;;;;;;;;10513814;28;20471;-72
2022/04/10 22:49:06;;;;;;;8.43;3.53;;;;;;;;;;10488437;28;20078;-74
2022/04/10 22:54:09;;;;;;;8.40;3.65;;;;;;;;;;10495632;28;20102;-73
2022/04/10 22:59:12;;;;;;;5.03;2.20;;;;;;;;;;10498381;28;20083;-74
2022/04/10 23:04:17;;;;;;;2.75;1.25;;;;;;;;;;10489484;28;20059;-74
2022/04/10 23:09:20;;;;;;;3.65;1.77;;;;;;;;;;10510575;28;20082;-74
2022/04/10 23:14:23;;;;;;;2.23;1.53;;;;;;;;;;10512745;28;20033;-73
2022/04/10 23:19:27;;;;;;;12.70;4.80;;;;;;;;;;10506895;28;20469;-73
2022/04/10 23:24:30;;;;;;;8.98;4.30;;;;;;;;;;10507365;28;20488;-72
2022/04/10 23:29:32;;;;;;;6.27;2.77;;;;;;;;;;10510107;28;20420;-72
2022/04/10 23:34:39;;;;;;;6.77;3.10;;;;;;;;;;10499533;28;20120;-73
2022/04/10 23:39:42;;;;;;;10.50;2.37;;;;;;;;;;10516834;28;20036;-73
2022/04/10 23:44:47;;;;;;;3.40;2.00;;;;;;;;;;10508400;28;20041;-72
2022/04/10 23:49:51;;;;;;;5.07;2.70;;;;;;;;;;10515325;28;20042;-73
2022/04/10 23:54:57;;;;;;;5.87;2.83;;;;;;;;;;10521984;28;20036;-73
